^^
Station Historical Data
Daily Summary for January 22, 2018 Units:  English    Metric   Both
« Previous Day
Next Day »
Daily Weekly Monthly Yearly Custom
  High: Low: Average:
Temperature: TemperatureC °F -10.8 °F -6.8 °F
Dew Point: DewpointC °F -12.1 °F -7.9 °F
Humidity: Humidity% 90% 92%
Wind Speed: WindSpeedKMHmph 0.0mph 0.1mph
Wind Gust: WindSpeedGustKMHmph - -
Wind- - East
Pressure: PressurehPa in 1009.4 in -
Precipitation: 0.5 in    
Historical Graphs
 
 
Tabular Data for January 22, 2018
Time Temperature Dew Point Pressure Wind Wind Speed Wind Gust Humidity Rainfall Rate (Hourly) solar Conditions
TemperatureC °F DewpointC °F PressurehPa in Calm     Humidity% HourlyPrecipMM in SoftwareType W/m2 Conditions
00:04 -10.2 °F -11.4 °F 1013.4 in Calm     91% 0.0 in WeatherDisplay:10.37 W/m2 FEW
00:09 -10.3 °F -11.4 °F 1013.4 in Calm     91% 0.0 in WeatherDisplay:10.37 W/m2 FEW
00:14 -10.4 °F -11.8 °F 1013.1 in Calm     90% 0.0 in WeatherDisplay:10.37 W/m2 FEW
00:19 -10.5 °F -11.8 °F 1013.1 in Calm     90% 0.0 in WeatherDisplay:10.37 W/m2 FEW
00:29 -10.7 °F -12.1 °F 1013.1 in Calm     90% 0.0 in WeatherDisplay:10.37 W/m2 FEW
00:34 -10.8 °F -12.1 °F 1013.4 in Calm     90% 0.0 in WeatherDisplay:10.37 W/m2 FEW
00:39 -10.7 °F -12.1 °F 1013.4 in Calm     90% 0.0 in WeatherDisplay:10.37 W/m2 FEW
00:44 -10.7 °F -11.8 °F 1013.4 in Calm     91% 0.0 in WeatherDisplay:10.37 W/m2 FEW
00:49 -10.6 °F -11.7 °F 1013.1 in Calm     91% 0.0 in WeatherDisplay:10.37 W/m2 FEW
00:54 -10.5 °F -11.7 °F 1013.4 in Calm     91% 0.0 in WeatherDisplay:10.37 W/m2 FEW
00:59 -10.4 °F -11.6 °F 1013.4 in Calm     91% 0.0 in WeatherDisplay:10.37 W/m2 FEW
01:04 -10.3 °F -11.4 °F 1013.1 in Calm     91% 0.0 in WeatherDisplay:10.37 W/m2 FEW
01:09 -10.2 °F -11.3 °F 1013.1 in Calm     91% 0.0 in WeatherDisplay:10.37 W/m2 FEW
01:14 -10.1 °F -11.2 °F 1013.1 in Calm     91% 0.0 in WeatherDisplay:10.37 W/m2 FEW
01:19 -9.9 °F -11.0 °F 1013.1 in Calm     92% 0.0 in WeatherDisplay:10.37 W/m2 FEW
01:24 -9.9 °F -10.9 °F 1013.1 in Calm     92% 0.0 in WeatherDisplay:10.37 W/m2 FEW
01:29 -9.8 °F -10.8 °F 1013.1 in Calm     92% 0.0 in WeatherDisplay:10.37 W/m2 FEW
01:34 -9.7 °F -10.8 °F 1013.1 in Calm     92% 0.0 in WeatherDisplay:10.37 W/m2 FEW
01:39 -9.7 °F -10.8 °F 1013.1 in Calm     92% 0.0 in WeatherDisplay:10.37 W/m2 FEW
01:44 -9.8 °F -10.9 °F 1012.8 in Calm     91% 0.0 in WeatherDisplay:10.37 W/m2 FEW
01:49 -9.8 °F -11.0 °F 1012.8 in Calm     91% 0.0 in WeatherDisplay:10.37 W/m2 FEW
01:54 -9.9 °F -11.1 °F 1012.8 in Calm     91% 0.0 in WeatherDisplay:10.37 W/m2 FEW
01:59 -10.0 °F -11.2 °F 1012.8 in Calm     91% 0.0 in WeatherDisplay:10.37 W/m2 FEW
02:04 -10.1 °F -11.2 °F 1012.8 in Calm     91% 0.0 in WeatherDisplay:10.37 W/m2 FEW
02:09 -10.1 °F -11.2 °F 1012.8 in Calm     91% 0.0 in WeatherDisplay:10.37 W/m2 FEW
02:14 -10.2 °F -11.3 °F 1012.8 in Calm     91% 0.0 in WeatherDisplay:10.37 W/m2 FEW
02:19 -10.2 °F -11.3 °F 1012.4 in Calm     91% 0.0 in WeatherDisplay:10.37 W/m2 FEW
02:24 -10.2 °F -11.3 °F 1012.4 in Calm     91% 0.0 in WeatherDisplay:10.37 W/m2 FEW
02:29 -10.2 °F -11.3 °F 1012.4 in Calm     91% 0.0 in WeatherDisplay:10.37 W/m2 FEW
02:34 -10.1 °F -11.3 °F 1012.4 in Calm     91% 0.0 in WeatherDisplay:10.37 W/m2 FEW
02:39 -10.2 °F -11.3 °F 1012.4 in Calm     91% 0.0 in WeatherDisplay:10.37 W/m2 FEW
02:44 -10.2 °F -11.3 °F 1012.1 in Calm     91% 0.0 in WeatherDisplay:10.37 W/m2 FEW
02:49 -10.2 °F -11.4 °F 1012.1 in Calm     91% 0.0 in WeatherDisplay:10.37 W/m2 FEW
02:54 -10.3 °F -11.4 °F 1012.1 in Calm     91% 0.0 in WeatherDisplay:10.37 W/m2 FEW
02:59 -10.3 °F -11.4 °F 1012.1 in Calm     91% 0.0 in WeatherDisplay:10.37 W/m2 FEW
03:04 -10.2 °F -11.4 °F 1012.1 in Calm     91% 0.0 in WeatherDisplay:10.37 W/m2 FEW
03:09 -10.2 °F -11.4 °F 1012.1 in Calm     91% 0.0 in WeatherDisplay:10.37 W/m2 FEW
03:14 -10.1 °F -11.3 °F 1012.1 in Calm     91% 0.0 in WeatherDisplay:10.37 W/m2 FEW
03:19 -10.0 °F -11.2 °F 1012.1 in Calm     91% 0.0 in WeatherDisplay:10.37 W/m2 FEW
03:24 -9.9 °F -11.1 °F 1012.1 in Calm     91% 0.0 in WeatherDisplay:10.37 W/m2 FEW
03:29 -9.8 °F -10.9 °F 1011.7 in Calm     92% 0.0 in WeatherDisplay:10.37 W/m2 FEW
03:35 -9.7 °F -10.8 °F 1011.7 in Calm     92% 0.0 in WeatherDisplay:10.37 W/m2 FEW
03:40 -9.7 °F -10.7 °F 1011.7 in Calm     92% 0.0 in WeatherDisplay:10.37 W/m2 FEW
03:45 -9.6 °F -10.6 °F 1011.7 in Calm     92% 0.0 in WeatherDisplay:10.37 W/m2 FEW
03:50 -9.4 °F -10.4 °F 1011.7 in Calm     92% 0.0 in WeatherDisplay:10.37 W/m2 FEW
03:55 -9.3 °F -10.3 °F 1011.7 in Calm     92% 0.0 in WeatherDisplay:10.37 W/m2 FEW
04:00 -9.2 °F -10.2 °F 1011.4 in Calm     92% 0.0 in WeatherDisplay:10.37 W/m2 FEW
04:05 -9.1 °F -10.1 °F 1011.4 in Calm     92% 0.0 in WeatherDisplay:10.37 W/m2 FEW
04:10 -8.9 °F -10.0 °F 1011.4 in Calm     92% 0.0 in WeatherDisplay:10.37 W/m2 FEW
04:15 -8.8 °F -9.9 °F 1011.4 in Calm     92% 0.0 in WeatherDisplay:10.37 W/m2 FEW
04:20 -8.7 °F -9.8 °F 1011.1 in Calm     92% 0.0 in WeatherDisplay:10.37 W/m2 FEW
04:25 -8.7 °F -9.7 °F 1011.1 in Calm     92% 0.0 in WeatherDisplay:10.37 W/m2 FEW
04:30 -8.6 °F -9.7 °F 1011.1 in Calm     92% 0.0 in WeatherDisplay:10.37 W/m2 FEW
04:35 -8.5 °F -9.6 °F 1011.1 in Calm     92% 0.0 in WeatherDisplay:10.37 W/m2 FEW
04:40 -8.4 °F -9.3 °F 1010.7 in Calm     93% 0.0 in WeatherDisplay:10.37 W/m2 FEW
04:45 -8.3 °F -9.3 °F 1010.7 in Calm     92% 0.0 in WeatherDisplay:10.37 W/m2 FEW
04:50 -8.2 °F -9.1 °F 1010.7 in Calm     93% 0.0 in WeatherDisplay:10.37 W/m2 FEW
04:55 -8.0 °F -8.9 °F 1010.7 in Calm     93% 0.0 in WeatherDisplay:10.37 W/m2 FEW
05:00 -7.8 °F -8.8 °F 1010.7 in Calm     93% 0.0 in WeatherDisplay:10.37 W/m2 FEW
05:05 -7.7 °F -8.6 °F 1010.4 in Calm     93% 0.3 in WeatherDisplay:10.37 W/m2 RA
05:15 -7.4 °F -8.3 °F 1010.4 in Calm     93% 0.3 in WeatherDisplay:10.37 W/m2 FEW
05:20 -7.3 °F -8.2 °F 1010.4 in Calm     93% 0.3 in WeatherDisplay:10.37 W/m2 FEW
05:25 -7.2 °F -8.2 °F 1010.4 in Calm     93% 0.3 in WeatherDisplay:10.37 W/m2 FEW
05:30 -7.1 °F -8.1 °F 1010.4 in Calm     93% 0.3 in WeatherDisplay:10.37 W/m2 FEW
05:40 -6.9 °F -7.9 °F 1010.4 in Calm     93% 0.3 in WeatherDisplay:10.37 W/m2 FEW
05:45 -6.8 °F -7.8 °F 1010.4 in Calm     93% 0.3 in WeatherDisplay:10.37 W/m2 FEW
05:50 -6.8 °F -7.7 °F 1010.4 in Calm     93% 0.3 in WeatherDisplay:10.37 W/m2 FEW
05:55 -6.7 °F -7.7 °F 1010.0 in Calm     93% 0.3 in WeatherDisplay:10.37 W/m2 FEW
06:00 -6.7 °F -7.7 °F 1010.0 in Calm     93% 0.3 in WeatherDisplay:10.37 W/m2 FEW
06:05 -6.7 °F -7.7 °F 1010.0 in Calm     93% 0.0 in WeatherDisplay:10.37 W/m2 FEW
06:10 -6.7 °F -7.7 °F 1010.0 in Calm     93% 0.0 in WeatherDisplay:10.37 W/m2 FEW
06:15 -6.7 °F -7.6 °F 1010.0 in Calm     93% 0.0 in WeatherDisplay:10.37 W/m2 FEW
06:20 -6.7 °F -7.6 °F 1010.0 in Calm     93% 0.0 in WeatherDisplay:10.37 W/m2 FEW
06:30 -6.6 °F -7.6 °F 1010.0 in Calm     93% 0.0 in WeatherDisplay:10.37 W/m2 FEW
06:40 -6.6 °F -7.5 °F 1010.0 in Calm     93% 0.0 in WeatherDisplay:10.37 W/m2 FEW
06:45 -6.5 °F -7.4 °F 1009.7 in Calm     93% 0.0 in WeatherDisplay:10.37 W/m2 FEW
06:50 -6.4 °F -7.4 °F 1009.7 in Calm     93% 0.0 in WeatherDisplay:10.37 W/m2 FEW
06:55 -6.4 °F -7.4 °F 1009.7 in Calm     93% 0.0 in WeatherDisplay:10.37 W/m2 FEW
07:00 -6.4 °F -7.3 °F 1009.7 in Calm     93% 0.0 in WeatherDisplay:10.37 W/m2 FEW
07:05 -6.3 °F -7.3 °F 1009.7 in Calm     93% 0.0 in WeatherDisplay:10.37 W/m2 FEW
07:10 -6.3 °F -7.3 °F 1009.7 in Calm     93% 0.0 in WeatherDisplay:10.37 W/m2 FEW
07:15 -6.3 °F -7.2 °F 1009.7 in Calm     93% 0.0 in WeatherDisplay:10.37 W/m2 FEW
07:20 -6.2 °F -7.2 °F 1009.4 in Calm     93% 0.0 in WeatherDisplay:10.37 W/m2 FEW
07:25 -6.2 °F -7.2 °F 1009.4 in Calm     93% 0.0 in WeatherDisplay:10.37 W/m2 FEW
07:30 -6.2 °F -7.1 °F 1009.4 in Calm     93% 0.0 in WeatherDisplay:10.37 W/m2 FEW
07:40 -6.1 °F -7.1 °F 1009.4 in Calm     93% 0.0 in WeatherDisplay:10.37 W/m2 FEW
07:50 -6.1 °F -7.1 °F 1009.4 in Calm     93% 0.0 in WeatherDisplay:10.37 W/m2 FEW
07:55 -6.1 °F -7.1 °F 1009.4 in Calm     93% 0.0 in WeatherDisplay:10.37 W/m2 FEW
08:00 -6.2 °F -7.1 °F 1009.4 in Calm     93% 0.0 in WeatherDisplay:10.37 W/m2 FEW
08:05 -6.2 °F -7.2 °F 1009.4 in Calm     93% 0.0 in WeatherDisplay:10.37 W/m2 FEW
08:10 -6.2 °F -7.2 °F 1009.4 in Calm     93% 0.0 in WeatherDisplay:10.37 W/m2 FEW
08:15 -6.2 °F -7.2 °F 1009.4 in Calm     93% 0.0 in WeatherDisplay:10.37 W/m2 FEW
08:20 -6.3 °F -7.2 °F 1009.4 in Calm     93% 0.0 in WeatherDisplay:10.37 W/m2 FEW
08:25 -6.3 °F -7.2 °F 1009.4 in Calm     93% 0.0 in WeatherDisplay:10.37 W/m2 FEW
08:30 -6.3 °F -7.2 °F 1009.4 in Calm     93% 0.0 in WeatherDisplay:10.37 W/m2 FEW
08:35 -6.2 °F -7.2 °F 1009.4 in Calm     93% 0.0 in WeatherDisplay:10.37 W/m2 FEW
08:40 -6.2 °F -7.1 °F 1009.4 in Calm     93% 0.0 in WeatherDisplay:10.37 W/m2 FEW
08:50 -6.1 °F -7.0 °F 1009.4 in Calm     93% 0.0 in WeatherDisplay:10.37 W/m2 FEW
08:55 -6.1 °F -7.0 °F 1009.4 in Calm     93% 0.0 in WeatherDisplay:10.37 W/m2 FEW
09:00 -6.0 °F -6.9 °F 1009.4 in Calm     93% 0.0 in WeatherDisplay:10.37 W/m2 FEW
09:05 -6.0 °F -6.9 °F 1009.4 in Calm     93% 0.0 in WeatherDisplay:10.37 W/m2 FEW
09:10 -5.9 °F -6.9 °F 1009.4 in Calm     93% 0.0 in WeatherDisplay:10.37 W/m2 FEW
09:15 -5.8 °F -6.8 °F 1009.4 in Calm     93% 0.0 in WeatherDisplay:10.37 W/m2 FEW
09:25 -5.7 °F -6.7 °F 1009.4 in Calm     93% 0.0 in WeatherDisplay:10.37 W/m2 FEW
09:30 -5.7 °F -6.6 °F 1009.4 in Calm     93% 0.0 in WeatherDisplay:10.37 W/m2 FEW
09:35 -5.6 °F -6.5 °F 1009.4 in Calm     93% 0.0 in WeatherDisplay:10.37 W/m2 FEW
09:40 -5.5 °F -6.4 °F 1009.4 in Calm     93% 0.0 in WeatherDisplay:10.37 W/m2 FEW
09:45 -5.4 °F -6.3 °F 1009.4 in Calm     94% 0.0 in WeatherDisplay:10.37 W/m2 FEW
09:50 -5.3 °F -6.2 °F 1009.4 in Calm     94% 0.0 in WeatherDisplay:10.37 W/m2 FEW
09:55 -5.2 °F -6.2 °F 1009.4 in Calm     93% 0.0 in WeatherDisplay:10.37 W/m2 FEW
10:00 -5.2 °F -6.1 °F 1009.4 in Calm     93% 0.0 in WeatherDisplay:10.37 W/m2 FEW
10:05 -5.1 °F -5.9 °F 1009.4 in Calm     94% 0.0 in WeatherDisplay:10.37 W/m2 FEW
10:10 -4.9 °F -5.9 °F 1009.4 in Calm     93% 0.0 in WeatherDisplay:10.37 W/m2 FEW
10:15 -4.8 °F -5.8 °F 1009.4 in Calm     93% 0.0 in WeatherDisplay:10.37 W/m2 FEW
10:20 -4.7 °F -5.5 °F 1009.4 in Calm     94% 0.0 in WeatherDisplay:10.37 W/m2 FEW
10:25 -4.6 °F -5.6 °F 1009.4 in Calm     93% 0.0 in WeatherDisplay:10.37 W/m2 FEW
10:30 -4.5 °F -5.4 °F 1009.4 in Calm     93% 0.0 in WeatherDisplay:10.37 W/m2 FEW
10:35 -4.4 °F -5.3 °F 1009.4 in Calm     94% 0.0 in WeatherDisplay:10.37 W/m2 FEW
10:40 -4.3 °F -5.2 °F 1009.4 in Calm     94% 0.0 in WeatherDisplay:10.37 W/m2 FEW
10:45 -4.3 °F -5.2 °F 1009.4 in Calm     93% 0.0 in WeatherDisplay:10.37 W/m2 FEW
10:50 -4.2 °F -5.0 °F 1009.4 in Calm     94% 0.0 in WeatherDisplay:10.37 W/m2 FEW
10:55 -4.1 °F -4.9 °F 1009.7 in Calm     94% 0.0 in WeatherDisplay:10.37 W/m2 FEW
11:00 -3.9 °F -4.8 °F 1009.7 in Calm     93% 0.0 in WeatherDisplay:10.37 W/m2 FEW
11:05 -3.7 °F -4.6 °F 1009.7 in Calm     94% 0.0 in WeatherDisplay:10.37 W/m2 FEW
11:10 -3.6 °F -4.6 °F 1009.7 in Calm     93% 0.0 in WeatherDisplay:10.37 W/m2 FEW
11:20 -3.3 °F -4.2 °F 1009.7 in Calm     94% 0.0 in WeatherDisplay:10.37 W/m2 FEW
11:25 -3.3 °F -4.2 °F 1009.7 in Calm     93% 0.0 in WeatherDisplay:10.37 W/m2 FEW
11:30 -3.2 °F -4.2 °F 1009.7 in Calm     93% 0.0 in WeatherDisplay:10.37 W/m2 FEW
11:35 -3.2 °F -4.0 °F 1009.7 in Calm     94% 0.0 in WeatherDisplay:10.37 W/m2 FEW
11:40 -3.1 °F -3.9 °F 1009.7 in Calm     94% 0.0 in WeatherDisplay:10.37 W/m2 FEW
11:45 -3.1 °F -4.0 °F 1009.7 in Calm     93% 0.0 in WeatherDisplay:10.37 W/m2 FEW
11:50 -2.9 °F -3.9 °F 1009.7 in Calm     93% 0.0 in WeatherDisplay:10.37 W/m2 FEW
11:55 -2.9 °F -3.7 °F 1009.7 in Calm     94% 0.0 in WeatherDisplay:10.37 W/m2 FEW
12:00 -2.8 °F -3.7 °F 1009.7 in Calm     94% 0.0 in WeatherDisplay:10.37 W/m2 FEW
12:05 -2.8 °F -3.6 °F 1009.7 in Calm     94% 0.0 in WeatherDisplay:10.37 W/m2 FEW
12:10 -2.8 °F -3.8 °F 1009.7 in NNW 0.2 mph 1.9 mph 93% 0.0 in WeatherDisplay:10.37 W/m2 FEW
12:15 -2.7 °F -3.7 °F 1009.7 in Calm     93% 0.0 in WeatherDisplay:10.37 W/m2 FEW
12:20 -2.7 °F -3.7 °F 1009.4 in Calm     93% 0.0 in WeatherDisplay:10.37 W/m2 FEW
12:25 -2.7 °F -3.7 °F 1009.4 in Calm     93% 0.0 in WeatherDisplay:10.37 W/m2 FEW
12:30 -2.6 °F -3.6 °F 1009.4 in Calm     93% 0.0 in WeatherDisplay:10.37 W/m2 FEW
12:35 -2.6 °F -3.6 °F 1009.4 in Calm     93% 0.0 in WeatherDisplay:10.37 W/m2 FEW
12:40 -2.5 °F -3.5 °F 1009.4 in Calm     93% 0.0 in WeatherDisplay:10.37 W/m2 FEW
12:45 -2.5 °F -3.5 °F 1009.4 in Calm     93% 0.0 in WeatherDisplay:10.37 W/m2 FEW
12:55 -2.4 °F -3.4 °F 1009.4 in Calm     93% 0.0 in WeatherDisplay:10.37 W/m2 FEW
13:00 -2.4 °F -3.4 °F 1009.4 in Calm     93% 0.0 in WeatherDisplay:10.37 W/m2 FEW
13:05 -2.4 °F -3.4 °F 1009.4 in Calm     93% 0.0 in WeatherDisplay:10.37 W/m2 FEW
13:10 -2.4 °F -3.4 °F 1009.4 in Calm   1.9 mph 93% 0.0 in WeatherDisplay:10.37 W/m2 FEW
13:15 -2.4 °F -3.4 °F 1009.4 in West 0.5 mph 3.7 mph 93% 0.0 in WeatherDisplay:10.37 W/m2 FEW
13:20 -2.4 °F -3.4 °F 1009.4 in Calm   1.6 mph 93% 0.0 in WeatherDisplay:10.37 W/m2 FEW
13:25 -2.4 °F -3.4 °F 1009.4 in Calm     93% 0.0 in WeatherDisplay:10.37 W/m2 FEW
13:30 -2.4 °F -3.4 °F 1009.4 in Calm     93% 0.0 in WeatherDisplay:10.37 W/m2 FEW
13:35 -2.4 °F -3.4 °F 1009.4 in Calm     93% 0.0 in WeatherDisplay:10.37 W/m2 FEW
13:40 -2.4 °F -3.4 °F 1009.4 in Calm     93% 0.0 in WeatherDisplay:10.37 W/m2 FEW
13:45 -2.4 °F -3.4 °F 1009.4 in Calm     93% 0.0 in WeatherDisplay:10.37 W/m2 FEW
13:55 -2.4 °F -3.4 °F 1009.4 in Calm     93% 0.0 in WeatherDisplay:10.37 W/m2 FEW
14:00 -2.4 °F -3.4 °F 1009.4 in Calm     93% 0.0 in WeatherDisplay:10.37 W/m2 FEW
14:10 -2.4 °F -3.4 °F 1009.4 in Calm     93% 0.0 in WeatherDisplay:10.37 W/m2 FEW
14:15 -2.4 °F -3.4 °F 1009.4 in Calm     93% 0.0 in WeatherDisplay:10.37 W/m2 FEW
14:20 -2.4 °F -3.4 °F 1009.7 in Calm     93% 0.0 in WeatherDisplay:10.37 W/m2 FEW
14:25 -2.4 °F -3.4 °F 1009.4 in Calm     93% 0.0 in WeatherDisplay:10.37 W/m2 FEW
14:30 -2.4 °F -3.4 °F 1009.4 in Calm     93% 0.0 in WeatherDisplay:10.37 W/m2 FEW
14:40 -2.4 °F -3.4 °F 1009.7 in West 0.3 mph 1.9 mph 93% 0.0 in WeatherDisplay:10.37 W/m2 FEW
14:45 -2.4 °F -3.4 °F 1009.4 in Calm     93% 0.0 in WeatherDisplay:10.37 W/m2 FEW
14:50 -2.4 °F -3.4 °F 1009.7 in Calm     93% 0.0 in WeatherDisplay:10.37 W/m2 FEW
14:55 -2.4 °F -3.4 °F 1009.7 in Calm     93% 0.0 in WeatherDisplay:10.37 W/m2 FEW
15:00 -2.4 °F -3.4 °F 1009.7 in Calm     93% 0.0 in WeatherDisplay:10.37 W/m2 FEW
15:10 -2.4 °F -3.4 °F 1009.7 in Calm     93% 0.0 in WeatherDisplay:10.37 W/m2 FEW
15:15 -2.5 °F -3.5 °F 1009.7 in Calm     93% 0.0 in WeatherDisplay:10.37 W/m2 FEW
15:20 -2.5 °F -3.5 °F 1009.7 in Calm     93% 0.0 in WeatherDisplay:10.37 W/m2 FEW
15:25 -2.5 °F -3.5 °F 1009.7 in Calm     93% 0.0 in WeatherDisplay:10.37 W/m2 FEW
15:30 -2.5 °F -3.5 °F 1009.7 in Calm     93% 0.0 in WeatherDisplay:10.37 W/m2 FEW
15:35 -2.5 °F -3.5 °F 1009.7 in Calm     93% 0.0 in WeatherDisplay:10.37 W/m2 FEW
15:40 -2.5 °F -3.5 °F 1009.7 in Calm     93% 0.0 in WeatherDisplay:10.37 W/m2 FEW
15:45 -2.5 °F -3.5 °F 1009.7 in Calm     93% 0.0 in WeatherDisplay:10.37 W/m2 FEW
15:50 -2.5 °F -3.5 °F 1009.7 in Calm     93% 0.0 in WeatherDisplay:10.37 W/m2 FEW
15:55 -2.5 °F -3.5 °F 1009.7 in Calm     93% 0.0 in WeatherDisplay:10.37 W/m2 FEW
16:00 -2.5 °F -3.5 °F 1009.7 in Calm     93% 0.0 in WeatherDisplay:10.37 W/m2 FEW
16:05 -2.5 °F -3.5 °F 1009.7 in Calm     93% 0.0 in WeatherDisplay:10.37 W/m2 FEW
16:10 -2.6 °F -3.6 °F 1010.0 in Calm     93% 0.0 in WeatherDisplay:10.37 W/m2 FEW
16:15 -2.7 °F -3.7 °F 1010.0 in ENE 4.0 mph 5.6 mph 93% 0.0 in WeatherDisplay:10.37 W/m2 FEW
16:25 -3.7 °F -4.9 °F 1010.0 in ENE 2.7 mph 5.6 mph 91% 0.0 in WeatherDisplay:10.37 W/m2 FEW
16:35 -4.4 °F -5.7 °F 1010.0 in ENE 2.6 mph 5.6 mph 91% 0.0 in WeatherDisplay:10.37 W/m2 FEW
16:40 -4.8 °F -6.0 °F 1010.4 in Calm   1.9 mph 91% 0.0 in WeatherDisplay:10.37 W/m2 FEW
16:45 -5.0 °F -6.2 °F 1010.4 in NE 1.3 mph 3.7 mph 91% 0.3 in WeatherDisplay:10.37 W/m2 RA
16:50 -5.2 °F -6.4 °F 1010.4 in Calm     91% 0.3 in WeatherDisplay:10.37 W/m2 RA
16:55 -5.3 °F -6.5 °F 1010.4 in Calm     91% 0.3 in WeatherDisplay:10.37 W/m2 FEW
17:00 -5.5 °F -6.7 °F 1010.7 in NNE 0.8 mph 3.7 mph 91% 0.3 in WeatherDisplay:10.37 W/m2 FEW
17:05 -5.8 °F -7.1 °F 1010.7 in NNE 2.6 mph 5.6 mph 91% 0.3 in WeatherDisplay:10.37 W/m2 FEW
17:10 -6.1 °F -7.4 °F 1010.7 in Calm   7.4 mph 90% 0.3 in WeatherDisplay:10.37 W/m2 FEW
17:15 -6.2 °F -7.6 °F 1010.7 in Calm     90% 0.3 in WeatherDisplay:10.37 W/m2 FEW
17:20 -6.3 °F -7.5 °F 1011.1 in NE 1.0 mph 5.6 mph 91% 0.3 in WeatherDisplay:10.37 W/m2 FEW
17:25 -6.3 °F -7.6 °F 1011.1 in Calm     91% 0.3 in WeatherDisplay:10.37 W/m2 FEW
17:30 -6.4 °F -7.7 °F 1011.1 in Calm     91% 0.3 in WeatherDisplay:10.37 W/m2 FEW
17:35 -6.6 °F -7.8 °F 1011.1 in Calm   3.7 mph 91% 0.3 in WeatherDisplay:10.37 W/m2 FEW
17:40 -6.7 °F -7.9 °F 1011.1 in Calm     91% 0.3 in WeatherDisplay:10.37 W/m2 FEW
17:45 -6.7 °F -7.9 °F 1011.1 in Calm     91% 0.3 in WeatherDisplay:10.37 W/m2 RA
17:50 -6.7 °F -7.9 °F 1011.1 in NNE 0.3 mph 3.2 mph 91% 0.3 in WeatherDisplay:10.37 W/m2 RA
17:55 -6.7 °F -7.9 °F 1011.1 in Calm     91% 0.3 in WeatherDisplay:10.37 W/m2 FEW
18:00 -6.8 °F -8.0 °F 1011.4 in Calm     91% 0.3 in WeatherDisplay:10.37 W/m2 FEW
18:05 -6.8 °F -8.1 °F 1011.4 in Calm     91% 0.3 in WeatherDisplay:10.37 W/m2 FEW
18:10 -6.9 °F -8.1 °F 1011.4 in NE 0.6 mph 1.6 mph 91% 0.3 in WeatherDisplay:10.37 W/m2 FEW
18:15 -7.0 °F -8.2 °F 1011.4 in Calm     91% 0.3 in WeatherDisplay:10.37 W/m2 FEW
18:20 -7.2 °F -8.6 °F 1011.4 in Calm     90% 0.3 in WeatherDisplay:10.37 W/m2 FEW
18:25 -7.4 °F -8.7 °F 1011.7 in NE 0.2 mph 3.7 mph 90% 0.3 in WeatherDisplay:10.37 W/m2 FEW
18:30 -7.6 °F -8.9 °F 1011.7 in Calm     90% 0.3 in WeatherDisplay:10.37 W/m2 FEW
18:35 -7.7 °F -9.0 °F 1011.7 in NNE 1.1 mph 5.6 mph 90% 0.3 in WeatherDisplay:10.37 W/m2 FEW
18:40 -7.8 °F -9.1 °F 1011.7 in Calm     90% 0.3 in WeatherDisplay:10.37 W/m2 FEW
18:45 -7.8 °F -9.2 °F 1012.1 in Calm     90% 0.0 in WeatherDisplay:10.37 W/m2 FEW
18:50 -7.9 °F -9.1 °F 1012.1 in Calm     91% 0.0 in WeatherDisplay:10.37 W/m2 FEW
18:55 -7.9 °F -9.3 °F 1012.1 in Calm     90% 0.0 in WeatherDisplay:10.37 W/m2 FEW
19:00 -7.9 °F -9.2 °F 1012.1 in Calm     91% 0.0 in WeatherDisplay:10.37 W/m2 FEW
19:05 -7.9 °F -9.2 °F 1012.1 in NNE 0.2 mph   91% 0.0 in WeatherDisplay:10.37 W/m2 FEW
19:10 -7.9 °F -9.2 °F 1012.1 in Calm     91% 0.0 in WeatherDisplay:10.37 W/m2 FEW
19:15 -8.0 °F -9.2 °F 1012.1 in Calm     91% 0.0 in WeatherDisplay:10.37 W/m2 FEW
19:20 -8.0 °F -9.2 °F 1012.4 in Calm     91% 0.0 in WeatherDisplay:10.37 W/m2 FEW
19:25 -7.9 °F -9.2 °F 1012.4 in Calm     91% 0.0 in WeatherDisplay:10.37 W/m2 FEW
19:30 -7.9 °F -9.2 °F 1012.4 in Calm     91% 0.0 in WeatherDisplay:10.37 W/m2 FEW
19:35 -8.0 °F -9.2 °F 1012.4 in Calm     91% 0.0 in WeatherDisplay:10.37 W/m2 FEW
19:40 -8.1 °F -9.4 °F 1012.4 in Calm   3.7 mph 90% 0.0 in WeatherDisplay:10.37 W/m2 FEW
19:45 -8.2 °F -9.5 °F 1012.8 in Calm     90% 0.0 in WeatherDisplay:10.37 W/m2 FEW
19:50 -8.2 °F -9.5 °F 1012.8 in NNE 0.6 mph 3.2 mph 90% 0.0 in WeatherDisplay:10.37 W/m2 FEW
19:55 -8.3 °F -9.6 °F 1012.8 in Calm     90% 0.0 in WeatherDisplay:10.37 W/m2 FEW
20:00 -8.3 °F -9.6 °F 1012.8 in Calm     90% 0.0 in WeatherDisplay:10.37 W/m2 FEW
20:05 -8.3 °F -9.6 °F 1012.8 in Calm     90% 0.0 in WeatherDisplay:10.37 W/m2 FEW
20:10 -8.3 °F -9.6 °F 1012.8 in Calm     90% 0.0 in WeatherDisplay:10.37 W/m2 FEW
20:15 -8.3 °F -9.6 °F 1012.8 in NNE 1.1 mph 5.6 mph 90% 0.0 in WeatherDisplay:10.37 W/m2 FEW
20:20 -8.3 °F -9.6 °F 1012.8 in Calm     90% 0.0 in WeatherDisplay:10.37 W/m2 FEW
20:25 -8.3 °F -9.6 °F 1012.8 in Calm     90% 0.0 in WeatherDisplay:10.37 W/m2 FEW
20:30 -8.3 °F -9.5 °F 1012.8 in Calm   1.9 mph 91% 0.0 in WeatherDisplay:10.37 W/m2 FEW
20:35 -8.3 °F -9.6 °F 1012.8 in Calm     91% 0.0 in WeatherDisplay:10.37 W/m2 FEW
20:40 -8.3 °F -9.5 °F 1012.8 in Calm     91% 0.0 in WeatherDisplay:10.37 W/m2 FEW
20:45 -8.3 °F -9.6 °F 1012.8 in NNE 1.8 mph 5.6 mph 91% 0.0 in WeatherDisplay:10.37 W/m2 FEW
20:50 -8.4 °F -9.7 °F 1013.1 in Calm     90% 0.0 in WeatherDisplay:10.37 W/m2 FEW
20:55 -8.4 °F -9.7 °F 1013.1 in Calm     91% 0.0 in WeatherDisplay:10.37 W/m2 FEW
21:00 -8.4 °F -9.7 °F 1013.1 in Calm     91% 0.0 in WeatherDisplay:10.37 W/m2 FEW
21:05 -8.4 °F -9.7 °F 1013.1 in Calm     91% 0.0 in WeatherDisplay:10.37 W/m2 FEW
21:10 -8.5 °F -9.7 °F 1013.1 in Calm     91% 0.0 in WeatherDisplay:10.37 W/m2 FEW
21:15 -8.5 °F -9.7 °F 1013.1 in Calm     91% 0.0 in WeatherDisplay:10.37 W/m2 FEW
21:20 -8.6 °F -9.8 °F 1013.1 in Calm     91% 0.0 in WeatherDisplay:10.37 W/m2 FEW
21:25 -8.6 °F -9.9 °F 1013.1 in Calm     90% 0.0 in WeatherDisplay:10.37 W/m2 FEW
21:30 -8.7 °F -10.0 °F 1013.1 in Calm     90% 0.0 in WeatherDisplay:10.37 W/m2 FEW
21:35 -8.7 °F -10.1 °F 1013.1 in Calm     90% 0.0 in WeatherDisplay:10.37 W/m2 FEW
21:40 -8.8 °F -10.2 °F 1013.1 in Calm     90% 0.0 in WeatherDisplay:10.37 W/m2 FEW
21:45 -8.9 °F -10.3 °F 1013.4 in Calm     90% 0.0 in WeatherDisplay:10.37 W/m2 FEW
21:50 -8.9 °F -10.3 °F 1013.4 in Calm     90% 0.0 in WeatherDisplay:10.37 W/m2 FEW
21:55 -9.0 °F -10.3 °F 1013.4 in Calm     90% 0.0 in WeatherDisplay:10.37 W/m2 FEW
22:00 -9.1 °F -10.4 °F 1013.4 in Calm     90% 0.0 in WeatherDisplay:10.37 W/m2 FEW
22:05 -9.1 °F -10.3 °F 1013.4 in Calm     91% 0.0 in WeatherDisplay:10.37 W/m2 FEW
22:10 -9.1 °F -10.3 °F 1013.4 in Calm     91% 0.0 in WeatherDisplay:10.37 W/m2 FEW
22:15 -9.1 °F -10.3 °F 1013.8 in Calm     91% 0.0 in WeatherDisplay:10.37 W/m2 FEW
22:20 -9.1 °F -10.3 °F 1013.8 in Calm     91% 0.0 in WeatherDisplay:10.37 W/m2 FEW
22:25 -9.1 °F -10.3 °F 1013.8 in Calm     91% 0.0 in WeatherDisplay:10.37 W/m2 FEW
22:30 -9.2 °F -10.4 °F 1013.8 in Calm     91% 0.0 in WeatherDisplay:10.37 W/m2 FEW
22:35 -9.2 °F -10.4 °F 1013.8 in Calm     91% 0.0 in WeatherDisplay:10.37 W/m2 FEW
22:40 -9.2 °F -10.4 °F 1014.1 in Calm     91% 0.0 in WeatherDisplay:10.37 W/m2 FEW
22:45 -9.3 °F -10.5 °F 1014.1 in Calm     91% 0.0 in WeatherDisplay:10.37 W/m2 FEW
22:50 -9.3 °F -10.6 °F 1014.1 in Calm     91% 0.0 in WeatherDisplay:10.37 W/m2 FEW
22:55 -9.4 °F -10.8 °F 1014.1 in Calm     90% 0.0 in WeatherDisplay:10.37 W/m2 FEW
23:00 -9.6 °F -10.9 °F 1014.1 in Calm     90% 0.0 in WeatherDisplay:10.37 W/m2 FEW
23:05 -9.8 °F -11.1 °F 1014.1 in Calm     90% 0.0 in WeatherDisplay:10.37 W/m2 FEW
23:10 -9.9 °F -11.3 °F 1014.1 in Calm     90% 0.0 in WeatherDisplay:10.37 W/m2 FEW
23:15 -10.1 °F -11.4 °F 1014.1 in Calm     90% 0.0 in WeatherDisplay:10.37 W/m2 FEW
23:20 -10.2 °F -11.6 °F 1014.1 in Calm     90% 0.0 in WeatherDisplay:10.37 W/m2 FEW
23:25 -10.3 °F -11.7 °F 1014.4 in Calm     90% 0.0 in WeatherDisplay:10.37 W/m2 FEW
23:30 -10.3 °F -11.7 °F 1014.4 in Calm     90% 0.0 in WeatherDisplay:10.37 W/m2 FEW
23:35 -10.3 °F -11.7 °F 1014.4 in Calm     90% 0.0 in WeatherDisplay:10.37 W/m2 FEW
23:40 -10.3 °F -11.7 °F 1014.4 in Calm     90% 0.0 in WeatherDisplay:10.37 W/m2 FEW
23:45 -10.3 °F -11.5 °F 1014.4 in Calm     91% 0.0 in WeatherDisplay:10.37 W/m2 FEW
23:50 -10.3 °F -11.4 °F 1014.8 in Calm     91% 0.0 in WeatherDisplay:10.37 W/m2 FEW
23:55 -10.2 °F -11.3 °F 1014.8 in Calm     91% 0.0 in WeatherDisplay:10.37 W/m2 FEW
Tuulensuunkaari, Veikkola, Suomi
Compliments of Weather Underground - 2.5 mb